Bangalore, India

9:54 PM IST on September 02, 2015 (GMT +0530)
Pride Orchid | | Change Station
CLOSE
Current Station
Personal Weather Station
Location: Bangalore, KARNATAKA
Elevation: 2890 ft
Nearby Weather Stations

Elev 2890 ft 12.95 °N, 77.72 °E | Updated 3 minutes ago

Scattered Clouds
Scattered Clouds
79.8 °F
Feels Like 82 °F
N
1.0
Wind Variable Wind from NNE
Gusts 4.0 mph

Today
High -- | Low -- °F
--% Chance of Precip.
Yesterday
High -- | Low -- °F
Precip. -- in
6:08 AM 6:30 PM
Waning Gibbous, 79% visible
Pressure 29.95 in
Visibility 3.7 miles
Clouds Scattered Clouds 1500 ft
Heat Index 82 °F
Dew Point 66 °F
Humidity 62%
Rainfall in
Snow Depth Not available.
UV 0.0 out of 12
Pollen Not available.
Air Quality Not available.
Flu Activity Not available.
METAR VOBL 021600Z 32003KT 6000 SCT015 28/23 Q1014 NOSIG
Pressure 29.95 in
Visibility 3.7 miles
Clouds Scattered Clouds 1500 ft
Heat Index 82 °F
Dew Point 66 °F
Humidity 62%
Rainfall in
Snow Depth Not available.
UV 0.0 out of 12
Pollen Not available.
Air Quality Not available.
Flu Activity Not available.
METAR VOBL 021600Z 32003KT 6000 SCT015 28/23 Q1014 NOSIG

10-Day Weather Forecast

×

Almanac

Astronomy

Sep. 02, 2015 Rise Set
Actual Time
Civil Twilight
Nautical Twilight
Astronomical Twilight
Moon
Length of Visible Light
Length of Day
Tomorrow will be .
, % of the Moon is Illuminated

Today's Extremes

Country Highs Country Lows

Community

WunderPhotos

Upload Photos

1,851,777 photos uploaded!

WunderBlogs® & News

Nearby

Air Quality

  Air Quality AQ Index Pollutant
Not available.

Snow Depth

Station Depth Elevation

Earthquake Activity

City Distance Mag. Time & Date
Minimum magnitude displayed is 2.5.

Coastal Water Temperatures

Place Temperature

Stations

Nearby Weather Stations

Station Location Temp. Windchill Dew Point Humidity Wind Precip. Elev Updated Type